Time;durP1;ratioP1;P1;durP2;ratioP2;P2;SDS_P1;SDS_P2;PMS_P1;PMS_P2;Temp;Humidity;BMP_temperature;BMP_pressure;BME280_temperature;BME280_humidity;BME280_pressure;Samples;Min_cycle;Max_cycle;Signal;HPM_P1;HPM_P2
2023/04/21 00:01:07;;;;;;;4.95;4.55;;;;;;;;;;5016854;28;20214;-62
2023/04/21 00:03:36;;;;;;;4.97;4.57;;;;;;;;;;5016735;28;20333;-61
2023/04/21 00:06:05;;;;;;;4.63;4.20;;;;;;;;;;5017141;28;20313;-61
2023/04/21 00:08:33;;;;;;;4.85;4.45;;;;;;;;;;5017107;28;20210;-61
2023/04/21 00:11:00;;;;;;;5.07;4.65;;;;;;;;;;5017093;28;20206;-61
2023/04/21 00:13:28;;;;;;;4.70;4.32;;;;;;;;;;5016703;28;20289;-61
2023/04/21 00:15:55;;;;;;;5.32;4.82;;;;;;;;;;5017302;28;20580;-61
2023/04/21 00:18:26;;;;;;;4.60;4.20;;;;;;;;;;5017140;28;20571;-61
2023/04/21 00:20:54;;;;;;;4.78;4.28;;;;;;;;;;5016812;28;20206;-61
2023/04/21 00:23:21;;;;;;;4.90;4.50;;;;;;;;;;5016680;28;20605;-61
2023/04/21 00:25:49;;;;;;;4.45;4.05;;;;;;;;;;5017146;28;20334;-61
2023/04/21 00:28:17;;;;;;;4.15;3.85;;;;;;;;;;5016745;28;20253;-61
2023/04/21 00:30:44;;;;;;;4.47;4.18;;;;;;;;;;5020364;28;20272;-61
2023/04/21 00:33:12;;;;;;;4.60;4.20;;;;;;;;;;5020539;28;20256;-61
2023/04/21 00:35:41;;;;;;;4.65;4.25;;;;;;;;;;5020510;28;20614;-61
2023/04/21 00:38:08;;;;;;;4.70;4.30;;;;;;;;;;5020724;28;20293;-61
2023/04/21 00:40:35;;;;;;;5.03;4.53;;;;;;;;;;5020200;28;20206;-61
2023/04/21 00:43:06;;;;;;;4.30;4.00;;;;;;;;;;5020540;28;20207;-61
2023/04/21 00:45:34;;;;;;;4.18;3.88;;;;;;;;;;5020116;28;20213;-61
2023/04/21 00:48:02;;;;;;;4.55;4.25;;;;;;;;;;5020084;28;20289;-61
2023/04/21 00:50:30;;;;;;;4.70;4.30;;;;;;;;;;5020111;28;20206;-62
2023/04/21 00:52:59;;;;;;;4.47;4.07;;;;;;;;;;5020184;28;20207;-62
2023/04/21 00:55:26;;;;;;;4.60;4.30;;;;;;;;;;5020055;28;20230;-61
2023/04/21 00:57:56;;;;;;;4.65;4.22;;;;;;;;;;5020015;28;20222;-61
2023/04/21 01:00:23;;;;;;;4.57;4.20;;;;;;;;;;5019946;28;20233;-61
2023/04/21 01:02:51;;;;;;;4.50;4.20;;;;;;;;;;5019880;28;20293;-61
2023/04/21 01:05:18;;;;;;;4.38;3.97;;;;;;;;;;5019532;28;20296;-61
2023/04/21 01:07:46;;;;;;;4.38;4.05;;;;;;;;;;5019657;28;20217;-61
2023/04/21 01:10:16;;;;;;;4.40;4.10;;;;;;;;;;5019538;28;20658;-61
2023/04/21 01:12:44;;;;;;;4.60;4.20;;;;;;;;;;5019555;28;20206;-61
2023/04/21 01:15:12;;;;;;;4.60;4.30;;;;;;;;;;5019510;28;20296;-61
2023/04/21 01:17:40;;;;;;;4.10;3.80;;;;;;;;;;5019331;28;20609;-61
2023/04/21 01:20:09;;;;;;;4.70;4.30;;;;;;;;;;5019594;28;20305;-61
2023/04/21 01:22:40;;;;;;;4.20;3.90;;;;;;;;;;5019222;28;20626;-61
2023/04/21 01:25:08;;;;;;;4.07;3.78;;;;;;;;;;5019485;28;20238;-61
2023/04/21 01:27:35;;;;;;;3.95;3.65;;;;;;;;;;5019289;28;20542;-61
2023/04/21 01:30:03;;;;;;;4.40;4.00;;;;;;;;;;5019662;28;20294;-61
2023/04/21 01:32:31;;;;;;;4.00;3.70;;;;;;;;;;5019586;28;20215;-61
2023/04/21 01:34:59;;;;;;;4.63;4.22;;;;;;;;;;5018975;28;20493;-61
2023/04/21 01:37:28;;;;;;;4.25;3.95;;;;;;;;;;5019004;28;20490;-61
2023/04/21 01:39:58;;;;;;;4.35;3.95;;;;;;;;;;5018814;28;20206;-61
2023/04/21 01:42:26;;;;;;;4.35;3.95;;;;;;;;;;5018956;28;20570;-61
2023/04/21 01:44:55;;;;;;;3.80;3.50;;;;;;;;;;5019310;28;20210;-61
2023/04/21 01:47:22;;;;;;;4.20;3.80;;;;;;;;;;5018751;28;20206;-61
2023/04/21 01:49:50;;;;;;;3.95;3.65;;;;;;;;;;5019019;28;20298;-61
2023/04/21 01:52:18;;;;;;;4.50;4.18;;;;;;;;;;5018923;28;20779;-61
2023/04/21 01:54:45;;;;;;;3.80;3.50;;;;;;;;;;5018769;28;20328;-61
2023/04/21 01:57:14;;;;;;;3.90;3.60;;;;;;;;;;5018829;28;20206;-61
2023/04/21 01:59:41;;;;;;;4.13;3.83;;;;;;;;;;5019147;28;20206;-61
2023/04/21 02:02:09;;;;;;;4.38;4.07;;;;;;;;;;5018649;28;20207;-61
2023/04/21 02:04:37;;;;;;;4.20;3.90;;;;;;;;;;5017950;28;20614;-62
2023/04/21 02:07:04;;;;;;;4.32;4.03;;;;;;;;;;5018545;28;20296;-61
2023/04/21 02:09:32;;;;;;;4.20;3.90;;;;;;;;;;5018711;28;20304;-61
2023/04/21 02:12:00;;;;;;;4.07;3.78;;;;;;;;;;5018988;28;20214;-61
2023/04/21 02:14:29;;;;;;;4.30;4.00;;;;;;;;;;5018464;28;20226;-61
2023/04/21 02:16:57;;;;;;;4.00;3.70;;;;;;;;;;5018528;28;20206;-61
2023/04/21 02:19:25;;;;;;;4.05;3.75;;;;;;;;;;5018525;28;20214;-61
2023/04/21 02:21:52;;;;;;;4.15;3.85;;;;;;;;;;5018317;28;20301;-61
2023/04/21 02:24:20;;;;;;;4.07;3.78;;;;;;;;;;5018438;28;20206;-61
2023/04/21 02:26:47;;;;;;;4.47;4.07;;;;;;;;;;5018119;28;20261;-61
2023/04/21 02:29:15;;;;;;;3.80;3.50;;;;;;;;;;5018312;28;20237;-61
2023/04/21 02:31:44;;;;;;;3.90;3.60;;;;;;;;;;5018605;28;20467;-61
2023/04/21 02:34:12;;;;;;;4.35;4.00;;;;;;;;;;5018512;28;20217;-61
2023/04/21 02:36:39;;;;;;;4.97;3.95;;;;;;;;;;5018086;28;20337;-61
2023/04/21 02:39:07;;;;;;;4.05;3.75;;;;;;;;;;5018241;28;20207;-61
2023/04/21 02:41:35;;;;;;;4.32;3.92;;;;;;;;;;5018438;28;20206;-61
2023/04/21 02:44:02;;;;;;;4.05;3.75;;;;;;;;;;5018046;28;20206;-61
2023/04/21 02:46:32;;;;;;;3.83;3.53;;;;;;;;;;5018281;28;20320;-61
2023/04/21 02:49:02;;;;;;;3.60;3.35;;;;;;;;;;5017802;28;20212;-61
2023/04/21 02:51:30;;;;;;;4.18;3.88;;;;;;;;;;5017157;28;20268;-61
2023/04/21 02:53:58;;;;;;;3.85;3.55;;;;;;;;;;5017819;28;20225;-61
2023/04/21 02:56:25;;;;;;;3.72;3.42;;;;;;;;;;5017716;28;20537;-61
2023/04/21 02:58:53;;;;;;;4.00;3.70;;;;;;;;;;5017934;28;20237;-61
2023/04/21 03:01:21;;;;;;;3.80;3.50;;;;;;;;;;5017649;28;20209;-61
2023/04/21 03:03:50;;;;;;;3.88;3.58;;;;;;;;;;5017569;28;20716;-61
2023/04/21 03:06:19;;;;;;;4.13;3.83;;;;;;;;;;5017619;28;20212;-61
2023/04/21 03:08:47;;;;;;;3.90;3.60;;;;;;;;;;5017163;28;20206;-61
2023/04/21 03:11:14;;;;;;;3.95;3.65;;;;;;;;;;5017587;28;20206;-61
2023/04/21 03:13:42;;;;;;;4.00;3.70;;;;;;;;;;5017740;28;20334;-61
2023/04/21 03:16:10;;;;;;;4.25;3.95;;;;;;;;;;5017315;28;20729;-61
2023/04/21 03:18:38;;;;;;;4.20;3.90;;;;;;;;;;5017650;28;20207;-61
2023/04/21 03:21:08;;;;;;;4.20;3.80;;;;;;;;;;5017597;28;20214;-61
2023/04/21 03:23:37;;;;;;;4.55;4.15;;;;;;;;;;5017238;28;20213;-61
2023/04/21 03:26:07;;;;;;;4.13;3.83;;;;;;;;;;5017472;28;20233;-61
2023/04/21 03:28:35;;;;;;;3.90;3.60;;;;;;;;;;5017606;28;20768;-61
2023/04/21 03:31:03;;;;;;;3.80;3.50;;;;;;;;;;5017538;28;20206;-61
2023/04/21 03:33:30;;;;;;;3.90;3.60;;;;;;;;;;5017270;28;20632;-61
2023/04/21 03:35:58;;;;;;;3.92;3.63;;;;;;;;;;5017311;28;20230;-61
2023/04/21 03:38:25;;;;;;;3.90;3.53;;;;;;;;;;5017123;28;20276;-61
2023/04/21 03:40:54;;;;;;;4.18;3.88;;;;;;;;;;5016924;28;20206;-61
2023/04/21 03:43:21;;;;;;;3.88;3.58;;;;;;;;;;5017199;28;20214;-61
2023/04/21 03:45:49;;;;;;;4.00;3.70;;;;;;;;;;5017403;28;20230;-61
2023/04/21 03:48:16;;;;;;;3.97;3.67;;;;;;;;;;5017190;28;20206;-61
2023/04/21 03:50:43;;;;;;;3.78;3.47;;;;;;;;;;5017258;28;20210;-61
2023/04/21 03:53:10;;;;;;;3.58;3.28;;;;;;;;;;5016875;28;20213;-61
2023/04/21 03:55:38;;;;;;;3.67;3.38;;;;;;;;;;5016877;28;20279;-61
2023/04/21 03:58:07;;;;;;;3.83;3.53;;;;;;;;;;5016926;28;20688;-61
2023/04/21 04:00:34;;;;;;;4.15;3.85;;;;;;;;;;5017059;28;20242;-61
2023/04/21 04:03:01;;;;;;;3.75;3.45;;;;;;;;;;5018550;28;20213;-61
2023/04/21 04:05:29;;;;;;;3.70;3.40;;;;;;;;;;5021095;28;20220;-61
2023/04/21 04:07:56;;;;;;;4.07;3.78;;;;;;;;;;5020725;28;20213;-61
2023/04/21 04:10:24;;;;;;;3.60;3.30;;;;;;;;;;5020730;28;20286;-61
2023/04/21 04:12:51;;;;;;;4.30;4.00;;;;;;;;;;5021033;28;20276;-61
2023/04/21 04:15:20;;;;;;;3.85;3.55;;;;;;;;;;5020950;28;20252;-61
2023/04/21 04:17:47;;;;;;;3.67;3.38;;;;;;;;;;5020706;28;20206;-61
2023/04/21 04:20:14;;;;;;;3.50;3.30;;;;;;;;;;5020281;28;20669;-61
2023/04/21 04:22:42;;;;;;;3.65;3.35;;;;;;;;;;5020335;28;20484;-61
2023/04/21 04:25:11;;;;;;;3.60;3.30;;;;;;;;;;5019727;28;20215;-61
2023/04/21 04:27:38;;;;;;;3.65;3.38;;;;;;;;;;5019812;28;20210;-61
2023/04/21 04:30:06;;;;;;;3.70;3.40;;;;;;;;;;5019924;28;20213;-61
2023/04/21 04:32:38;;;;;;;3.70;3.40;;;;;;;;;;5020257;28;20543;-61
2023/04/21 04:35:06;;;;;;;3.33;3.03;;;;;;;;;;5019089;28;20466;-61
2023/04/21 04:37:34;;;;;;;3.80;3.50;;;;;;;;;;5019189;28;20268;-61
2023/04/21 04:40:04;;;;;;;3.65;3.35;;;;;;;;;;5019461;28;20627;-61
2023/04/21 04:42:31;;;;;;;3.67;3.38;;;;;;;;;;5019833;28;20608;-61
2023/04/21 04:45:00;;;;;;;3.50;3.20;;;;;;;;;;5019110;28;20221;-61
2023/04/21 04:47:28;;;;;;;3.97;3.67;;;;;;;;;;5018928;28;20202;-61
2023/04/21 04:49:57;;;;;;;3.63;3.33;;;;;;;;;;5010345;28;20283;-61
2023/04/21 04:52:24;;;;;;;3.60;3.30;;;;;;;;;;4999632;28;20577;-61
2023/04/21 04:54:51;;;;;;;3.78;3.47;;;;;;;;;;4998365;28;20537;-61
2023/04/21 04:57:18;;;;;;;3.60;3.30;;;;;;;;;;4998312;28;20494;-61
2023/04/21 04:59:46;;;;;;;3.60;3.30;;;;;;;;;;4998927;28;20513;-61
2023/04/21 05:02:14;;;;;;;3.88;3.47;;;;;;;;;;4999074;28;20231;-61
2023/04/21 05:04:41;;;;;;;3.42;3.17;;;;;;;;;;4997216;28;20643;-61
2023/04/21 05:07:10;;;;;;;3.60;3.30;;;;;;;;;;4997327;28;20533;-61
2023/04/21 05:09:37;;;;;;;3.50;3.20;;;;;;;;;;4997902;28;20215;-61
2023/04/21 05:12:05;;;;;;;3.22;3.00;;;;;;;;;;4997542;28;20214;-61
2023/04/21 05:14:32;;;;;;;3.65;3.35;;;;;;;;;;4997223;28;20576;-61
2023/04/21 05:17:00;;;;;;;3.65;3.35;;;;;;;;;;4997934;28;20562;-61
2023/04/21 05:19:27;;;;;;;3.70;3.40;;;;;;;;;;4997126;28;20222;-61
2023/04/21 05:21:59;;;;;;;3.58;3.28;;;;;;;;;;4997663;28;20207;-61
2023/04/21 05:24:28;;;;;;;3.60;3.30;;;;;;;;;;4997566;28;20301;-61
2023/04/21 05:26:55;;;;;;;3.65;3.35;;;;;;;;;;4997579;28;20210;-61
2023/04/21 05:29:23;;;;;;;3.45;3.15;;;;;;;;;;4997292;28;20207;-61
2023/04/21 05:31:50;;;;;;;3.45;3.15;;;;;;;;;;4997852;28;20213;-61
2023/04/21 05:34:17;;;;;;;3.25;3.05;;;;;;;;;;4996576;28;20214;-61
2023/04/21 05:36:45;;;;;;;3.30;3.10;;;;;;;;;;4996795;28;20234;-61
2023/04/21 05:39:12;;;;;;;3.42;3.13;;;;;;;;;;4996730;28;20708;-61
2023/04/21 05:41:41;;;;;;;3.45;3.15;;;;;;;;;;4996738;28;20211;-61
2023/04/21 05:44:08;;;;;;;3.25;3.05;;;;;;;;;;4995603;28;20281;-61
2023/04/21 05:46:35;;;;;;;3.20;3.00;;;;;;;;;;4995143;28;20787;-61
2023/04/21 05:49:03;;;;;;;3.20;3.00;;;;;;;;;;4996674;28;20207;-61
2023/04/21 05:51:30;;;;;;;3.20;3.00;;;;;;;;;;4996827;28;20207;-61
2023/04/21 05:53:58;;;;;;;3.08;2.88;;;;;;;;;;4997070;28;20342;-61
2023/04/21 05:56:26;;;;;;;3.42;3.15;;;;;;;;;;4997042;28;20322;-61
2023/04/21 05:58:54;;;;;;;3.50;3.20;;;;;;;;;;4996361;28;20816;-61
2023/04/21 06:01:21;;;;;;;3.42;3.13;;;;;;;;;;4996350;28;20207;-61
2023/04/21 06:03:49;;;;;;;3.50;3.20;;;;;;;;;;4996082;28;20243;-61
2023/04/21 06:06:16;;;;;;;3.40;3.10;;;;;;;;;;4997504;28;20211;-61
2023/04/21 06:08:44;;;;;;;3.22;2.92;;;;;;;;;;4997146;28;20272;-61
2023/04/21 06:11:11;;;;;;;3.80;3.50;;;;;;;;;;4996915;28;20215;-61
2023/04/21 06:13:39;;;;;;;3.13;2.92;;;;;;;;;;4996938;28;20214;-61
2023/04/21 06:16:07;;;;;;;4.57;3.13;;;;;;;;;;4996967;28;20685;-61
2023/04/21 06:18:35;;;;;;;3.47;3.20;;;;;;;;;;4997505;28;20207;-61
2023/04/21 06:21:02;;;;;;;3.45;3.15;;;;;;;;;;4997122;28;20273;-61
2023/04/21 06:23:29;;;;;;;3.05;2.85;;;;;;;;;;4997142;28;20466;-61
2023/04/21 06:26:03;;;;;;;3.38;3.08;;;;;;;;;;4995998;28;20199;-61
2023/04/21 06:28:30;;;;;;;3.20;3.00;;;;;;;;;;4996559;28;20211;-61
2023/04/21 06:30:57;;;;;;;3.30;3.10;;;;;;;;;;4996402;28;20301;-61
2023/04/21 06:33:26;;;;;;;3.30;3.00;;;;;;;;;;4997147;28;20211;-61
2023/04/21 06:35:54;;;;;;;3.50;3.20;;;;;;;;;;4996694;28;20242;-61
2023/04/21 06:38:22;;;;;;;3.40;3.10;;;;;;;;;;4996218;28;20623;-61
2023/04/21 06:40:49;;;;;;;3.65;3.35;;;;;;;;;;4996102;28;20210;-61
2023/04/21 06:43:16;;;;;;;3.83;3.08;;;;;;;;;;4996326;28;20215;-61
2023/04/21 06:45:43;;;;;;;3.50;3.20;;;;;;;;;;4995808;28;20780;-61
2023/04/21 06:48:11;;;;;;;3.20;2.90;;;;;;;;;;4996741;28;20207;-61
2023/04/21 06:50:39;;;;;;;3.53;3.22;;;;;;;;;;4995503;28;20221;-61
2023/04/21 06:53:07;;;;;;;3.60;3.30;;;;;;;;;;4996315;28;20674;-61
2023/04/21 06:55:34;;;;;;;3.30;3.00;;;;;;;;;;4996166;28;20588;-61
2023/04/21 06:58:01;;;;;;;3.17;2.97;;;;;;;;;;4994631;28;20223;-61
2023/04/21 07:00:29;;;;;;;3.55;3.25;;;;;;;;;;4995359;28;20214;-61
2023/04/21 07:02:56;;;;;;;3.35;3.10;;;;;;;;;;4995416;28;20210;-61
2023/04/21 07:05:23;;;;;;;3.30;3.10;;;;;;;;;;4995631;28;20233;-61
2023/04/21 07:07:54;;;;;;;3.33;3.13;;;;;;;;;;4996105;28;20203;-61
2023/04/21 07:10:22;;;;;;;3.30;3.00;;;;;;;;;;4995566;28;20210;-61
2023/04/21 07:12:49;;;;;;;3.60;3.30;;;;;;;;;;4994687;28;20211;-61
2023/04/21 07:15:16;;;;;;;3.20;3.00;;;;;;;;;;4995277;28;20207;-61
2023/04/21 07:17:44;;;;;;;3.70;3.40;;;;;;;;;;4995863;28;20230;-61
2023/04/21 07:20:11;;;;;;;3.50;3.20;;;;;;;;;;4995203;28;20214;-61
2023/04/21 07:22:39;;;;;;;3.05;2.85;;;;;;;;;;4995764;28;20281;-61
2023/04/21 07:25:08;;;;;;;3.85;3.28;;;;;;;;;;4995859;28;20739;-61
2023/04/21 07:27:36;;;;;;;3.80;3.30;;;;;;;;;;4996045;28;20565;-61
2023/04/21 07:30:03;;;;;;;3.28;3.00;;;;;;;;;;4996002;28;20247;-61
2023/04/21 07:32:31;;;;;;;3.22;3.03;;;;;;;;;;4994422;28;20207;-61
2023/04/21 07:35:00;;;;;;;3.50;3.20;;;;;;;;;;4995440;28;20218;-61
2023/04/21 07:37:27;;;;;;;3.28;3.08;;;;;;;;;;4997174;28;20578;-62
2023/04/21 07:39:54;;;;;;;3.33;3.03;;;;;;;;;;5001933;28;20280;-62
2023/04/21 07:42:24;;;;;;;3.35;3.05;;;;;;;;;;5001622;28;20379;-62
2023/04/21 07:44:51;;;;;;;3.33;3.03;;;;;;;;;;5001524;28;20265;-62
2023/04/21 07:47:19;;;;;;;3.38;3.08;;;;;;;;;;5001060;28;20669;-62
2023/04/21 07:49:46;;;;;;;3.30;3.10;;;;;;;;;;5001177;28;20690;-62
2023/04/21 07:52:13;;;;;;;3.42;3.22;;;;;;;;;;5001802;28;20225;-61
2023/04/21 07:54:41;;;;;;;3.30;3.00;;;;;;;;;;5001916;28;20213;-61
2023/04/21 07:57:08;;;;;;;3.10;2.90;;;;;;;;;;5001187;28;20226;-61
2023/04/21 07:59:37;;;;;;;3.15;2.90;;;;;;;;;;5000908;28;20207;-62
2023/04/21 08:02:04;;;;;;;3.00;2.80;;;;;;;;;;5001606;28;20233;-62
2023/04/21 08:04:32;;;;;;;3.22;2.97;;;;;;;;;;5000924;28;20353;-62
2023/04/21 08:06:59;;;;;;;3.50;3.20;;;;;;;;;;5000473;28;20207;-61
2023/04/21 08:09:27;;;;;;;3.20;3.00;;;;;;;;;;5001720;28;20207;-61
2023/04/21 08:11:56;;;;;;;3.38;3.10;;;;;;;;;;5001800;28;20214;-62
2023/04/21 08:14:25;;;;;;;3.47;3.20;;;;;;;;;;5001926;28;20483;-62
2023/04/21 08:16:54;;;;;;;3.30;3.10;;;;;;;;;;5001869;28;20219;-62
2023/04/21 08:19:21;;;;;;;3.00;2.80;;;;;;;;;;5001425;28;20210;-62
2023/04/21 08:21:48;;;;;;;2.72;2.53;;;;;;;;;;5001285;28;20214;-62
2023/04/21 08:24:16;;;;;;;3.65;3.10;;;;;;;;;;5001067;28;20214;-62
2023/04/21 08:26:43;;;;;;;3.70;3.30;;;;;;;;;;5000810;28;20289;-62
2023/04/21 08:29:12;;;;;;;3.13;2.80;;;;;;;;;;5001955;28;20575;-62
2023/04/21 08:31:39;;;;;;;3.03;2.83;;;;;;;;;;5001320;28;20830;-62
2023/04/21 08:34:08;;;;;;;3.50;3.20;;;;;;;;;;5000615;28;20202;-62
2023/04/21 08:36:35;;;;;;;3.30;3.00;;;;;;;;;;5001160;28;20234;-62
2023/04/21 08:39:02;;;;;;;3.20;3.00;;;;;;;;;;5000765;28;20202;-62
2023/04/21 08:41:30;;;;;;;3.67;3.10;;;;;;;;;;5000699;28;20277;-61
2023/04/21 08:43:57;;;;;;;3.30;3.03;;;;;;;;;;5000927;28;20218;-61
2023/04/21 08:46:24;;;;;;;3.60;3.30;;;;;;;;;;5001232;28;20723;-62
2023/04/21 08:48:52;;;;;;;3.85;3.33;;;;;;;;;;4999461;28;20207;-62
2023/04/21 08:51:22;;;;;;;3.42;3.13;;;;;;;;;;4997913;28;20415;-62
2023/04/21 08:53:50;;;;;;;3.13;2.92;;;;;;;;;;4997638;28;20301;-62
2023/04/21 08:56:18;;;;;;;3.28;3.00;;;;;;;;;;4997431;28;20598;-62
2023/04/21 08:58:45;;;;;;;4.10;3.22;;;;;;;;;;4997799;28;20651;-62
2023/04/21 09:01:12;;;;;;;3.50;3.20;;;;;;;;;;4998056;28;20215;-62
2023/04/21 09:03:39;;;;;;;3.40;2.90;;;;;;;;;;4998290;28;20575;-62
2023/04/21 09:06:08;;;;;;;3.67;3.35;;;;;;;;;;4997430;28;20219;-62
2023/04/21 09:08:38;;;;;;;3.60;3.30;;;;;;;;;;4997557;28;20210;-62
2023/04/21 09:11:06;;;;;;;3.10;2.90;;;;;;;;;;4998337;28;20207;-63
2023/04/21 09:13:34;;;;;;;3.90;3.45;;;;;;;;;;4997839;28;20242;-62
2023/04/21 09:16:03;;;;;;;3.67;3.38;;;;;;;;;;4997776;28;20210;-62
2023/04/21 09:18:34;;;;;;;3.42;3.13;;;;;;;;;;4997659;28;20230;-62
2023/04/21 09:21:08;;;;;;;3.38;3.08;;;;;;;;;;4997163;28;20837;-62
2023/04/21 09:23:45;;;;;;;3.30;3.00;;;;;;;;;;4998085;28;20215;-62
2023/04/21 09:26:12;;;;;;;3.22;3.03;;;;;;;;;;4997007;28;20207;-62
2023/04/21 09:28:42;;;;;;;3.15;2.85;;;;;;;;;;4996282;28;20583;-62
2023/04/21 09:31:15;;;;;;;3.97;3.40;;;;;;;;;;4997233;28;20556;-62
2023/04/21 09:33:45;;;;;;;3.38;3.13;;;;;;;;;;4997443;28;20234;-62
2023/04/21 09:36:18;;;;;;;3.50;3.20;;;;;;;;;;4995755;28;20214;-62
2023/04/21 09:38:50;;;;;;;3.17;2.97;;;;;;;;;;4996760;28;20685;-62
2023/04/21 09:41:18;;;;;;;3.20;3.00;;;;;;;;;;4995700;28;20273;-62
2023/04/21 09:43:45;;;;;;;3.40;3.10;;;;;;;;;;4996494;28;20231;-62
2023/04/21 09:46:13;;;;;;;3.05;2.75;;;;;;;;;;4996874;28;20215;-62
2023/04/21 09:48:43;;;;;;;2.90;2.70;;;;;;;;;;4995443;28;20211;-62
2023/04/21 09:51:12;;;;;;;3.50;3.20;;;;;;;;;;4996518;28;20269;-62
2023/04/21 09:53:40;;;;;;;3.10;2.90;;;;;;;;;;4996374;28;20294;-62
2023/04/21 09:56:12;;;;;;;3.38;3.17;;;;;;;;;;4995862;28;20218;-62
2023/04/21 09:58:41;;;;;;;3.17;2.97;;;;;;;;;;4996377;28;20283;-62
2023/04/21 10:01:10;;;;;;;3.60;3.30;;;;;;;;;;4995167;28;20575;-62
2023/04/21 10:03:39;;;;;;;3.03;2.75;;;;;;;;;;4995691;28;20333;-61
2023/04/21 10:06:07;;;;;;;3.40;3.13;;;;;;;;;;4997040;28;20207;-61
2023/04/21 10:08:35;;;;;;;3.40;3.10;;;;;;;;;;4996197;28;20572;-61
2023/04/21 10:11:02;;;;;;;3.08;2.78;;;;;;;;;;4996869;28;20214;-61
2023/04/21 10:13:31;;;;;;;3.38;3.08;;;;;;;;;;4996288;28;20203;-61
2023/04/21 10:16:06;;;;;;;2.97;2.78;;;;;;;;;;4996749;28;20203;-61
2023/04/21 10:18:35;;;;;;;3.20;3.00;;;;;;;;;;4996514;28;20222;-61
2023/04/21 10:21:04;;;;;;;3.30;3.00;;;;;;;;;;4996372;28;20217;-61
2023/04/21 10:23:33;;;;;;;3.33;3.03;;;;;;;;;;4995965;28;20214;-62
2023/04/21 10:26:05;;;;;;;3.20;3.00;;;;;;;;;;4995574;28;20219;-62
2023/04/21 10:28:44;;;;;;;3.05;2.85;;;;;;;;;;4995711;28;20195;-62
2023/04/21 10:31:18;;;;;;;2.95;2.75;;;;;;;;;;4995495;28;20207;-62
2023/04/21 10:34:00;;;;;;;3.58;3.28;;;;;;;;;;4994593;28;20306;-62
2023/04/21 10:36:28;;;;;;;3.17;2.97;;;;;;;;;;4995498;28;20230;-62
2023/04/21 10:38:57;;;;;;;3.15;2.95;;;;;;;;;;4995675;28;20333;-62
2023/04/21 10:41:27;;;;;;;3.10;2.90;;;;;;;;;;4995571;28;20578;-62
2023/04/21 10:43:58;;;;;;;3.00;2.80;;;;;;;;;;4995397;28;20233;-62
2023/04/21 10:46:35;;;;;;;3.08;2.88;;;;;;;;;;4995675;28;20199;-62
2023/04/21 10:49:06;;;;;;;3.35;3.05;;;;;;;;;;4995054;28;20203;-62
2023/04/21 10:51:33;;;;;;;3.33;3.03;;;;;;;;;;5460750;23;20238;-61
2023/04/21 10:54:01;;;;;;;3.05;2.85;;;;;;;;;;5014821;28;20610;-61
2023/04/21 10:56:29;;;;;;;3.58;3.28;;;;;;;;;;5014922;28;20212;-62
2023/04/21 10:59:00;;;;;;;3.42;3.13;;;;;;;;;;5015471;28;20234;-62
2023/04/21 11:01:27;;;;;;;3.03;2.83;;;;;;;;;;5012812;28;20213;-62
2023/04/21 11:03:57;;;;;;;3.40;3.13;;;;;;;;;;5014066;28;20210;-62
2023/04/21 11:06:24;;;;;;;3.00;2.80;;;;;;;;;;5014542;28;20212;-62
2023/04/21 11:08:57;;;;;;;2.95;2.75;;;;;;;;;;5015169;28;20268;-62
2023/04/21 11:11:25;;;;;;;3.22;3.03;;;;;;;;;;5014371;28;20219;-62
2023/04/21 11:13:53;;;;;;;3.70;3.40;;;;;;;;;;5013476;28;20308;-62
2023/04/21 11:16:23;;;;;;;2.88;2.67;;;;;;;;;;5013908;28;20210;-62
2023/04/21 11:18:50;;;;;;;3.40;3.10;;;;;;;;;;5014937;28;20222;-62
2023/04/21 11:21:20;;;;;;;3.15;2.95;;;;;;;;;;5014060;28;20645;-62
2023/04/21 11:23:54;;;;;;;3.20;3.00;;;;;;;;;;5014747;28;20202;-62
2023/04/21 11:26:31;;;;;;;3.03;2.83;;;;;;;;;;5014560;28;20531;-62
2023/04/21 11:29:01;;;;;;;3.22;2.92;;;;;;;;;;5013700;28;20206;-62
2023/04/21 11:31:30;;;;;;;3.35;3.05;;;;;;;;;;5013948;28;20203;-62
2023/04/21 11:33:59;;;;;;;2.92;2.72;;;;;;;;;;5013849;28;20206;-62
2023/04/21 11:36:26;;;;;;;3.20;2.90;;;;;;;;;;5013656;28;20213;-62
2023/04/21 11:38:54;;;;;;;3.40;3.10;;;;;;;;;;5013569;28;20649;-62
2023/04/21 11:41:22;;;;;;;3.00;2.80;;;;;;;;;;5013599;28;20208;-62
2023/04/21 11:43:50;;;;;;;3.40;3.10;;;;;;;;;;5014218;28;20757;-62
2023/04/21 11:46:18;;;;;;;2.78;2.58;;;;;;;;;;5014758;28;20206;-62
2023/04/21 11:48:47;;;;;;;2.90;2.70;;;;;;;;;;5013604;28;20260;-62
2023/04/21 11:51:15;;;;;;;3.30;3.00;;;;;;;;;;5014726;28;20210;-62
2023/04/21 11:53:42;;;;;;;3.15;2.95;;;;;;;;;;5013676;28;20596;-62
2023/04/21 11:56:11;;;;;;;3.42;3.13;;;;;;;;;;5015420;28;20207;-62
2023/04/21 11:58:39;;;;;;;2.72;2.53;;;;;;;;;;5013648;28;20349;-61
2023/04/21 12:01:09;;;;;;;2.92;2.72;;;;;;;;;;5014363;28;20625;-61
2023/04/21 12:03:36;;;;;;;3.10;2.90;;;;;;;;;;5013683;28;20210;-62
2023/04/21 12:06:06;;;;;;;3.50;3.00;;;;;;;;;;5013597;28;20209;-62
2023/04/21 12:08:33;;;;;;;3.35;3.05;;;;;;;;;;5014161;28;20302;-62
2023/04/21 12:11:02;;;;;;;3.20;3.00;;;;;;;;;;5014448;28;20706;-62
2023/04/21 12:13:31;;;;;;;2.97;2.78;;;;;;;;;;5013881;28;20206;-62
2023/04/21 12:15:58;;;;;;;3.03;2.83;;;;;;;;;;5013626;28;20222;-62
2023/04/21 12:18:28;;;;;;;3.35;3.05;;;;;;;;;;5013052;28;20770;-62
2023/04/21 12:20:55;;;;;;;3.20;3.00;;;;;;;;;;5013650;28;20318;-62
2023/04/21 12:23:24;;;;;;;3.10;2.90;;;;;;;;;;5014360;28;20285;-62
2023/04/21 12:25:51;;;;;;;3.20;2.97;;;;;;;;;;5016981;28;20337;-62
2023/04/21 12:28:18;;;;;;;3.00;2.80;;;;;;;;;;5017702;28;20222;-62
2023/04/21 12:30:46;;;;;;;3.40;2.97;;;;;;;;;;5017378;28;20214;-62
2023/04/21 12:33:13;;;;;;;3.17;2.88;;;;;;;;;;5017803;28;20198;-62
2023/04/21 12:35:40;;;;;;;2.92;2.72;;;;;;;;;;5017265;28;20214;-62
2023/04/21 12:38:07;;;;;;;3.08;2.88;;;;;;;;;;5016772;28;20238;-62
2023/04/21 12:40:36;;;;;;;3.28;3.08;;;;;;;;;;5017364;28;20217;-62
2023/04/21 12:43:03;;;;;;;3.58;3.05;;;;;;;;;;5016870;28;20203;-62
2023/04/21 12:45:31;;;;;;;3.00;2.80;;;;;;;;;;5017450;28;20272;-62
2023/04/21 12:47:59;;;;;;;3.25;3.05;;;;;;;;;;5018025;28;20230;-62
2023/04/21 12:50:26;;;;;;;3.35;3.08;;;;;;;;;;5016804;28;20272;-62
2023/04/21 12:52:54;;;;;;;3.25;3.05;;;;;;;;;;5016419;28;20234;-62
2023/04/21 12:55:21;;;;;;;2.95;2.75;;;;;;;;;;5017198;28;20316;-62
2023/04/21 12:57:51;;;;;;;3.20;3.00;;;;;;;;;;5017173;28;20268;-62
2023/04/21 13:00:18;;;;;;;3.28;2.97;;;;;;;;;;5017616;28;20653;-62
2023/04/21 13:02:46;;;;;;;3.20;3.00;;;;;;;;;;5016790;28;20262;-62
2023/04/21 13:05:15;;;;;;;3.35;3.05;;;;;;;;;;5015969;28;20259;-62
2023/04/21 13:07:48;;;;;;;3.08;2.88;;;;;;;;;;5016660;28;20198;-62
2023/04/21 13:10:16;;;;;;;3.47;2.83;;;;;;;;;;5016484;28;20221;-62
2023/04/21 13:12:43;;;;;;;3.10;2.90;;;;;;;;;;5015968;28;20224;-62
2023/04/21 13:15:12;;;;;;;3.08;2.88;;;;;;;;;;5016637;28;20242;-62
2023/04/21 13:17:39;;;;;;;3.10;2.90;;;;;;;;;;5016571;28;20207;-61
2023/04/21 13:20:07;;;;;;;2.95;2.75;;;;;;;;;;5015980;28;20233;-61
2023/04/21 13:22:35;;;;;;;3.25;3.03;;;;;;;;;;5017025;28;20214;-62
2023/04/21 13:25:03;;;;;;;3.33;3.10;;;;;;;;;;5016623;28;20206;-62
2023/04/21 13:27:32;;;;;;;3.30;3.10;;;;;;;;;;5016230;28;20292;-62
2023/04/21 13:29:59;;;;;;;2.85;2.65;;;;;;;;;;5016305;28;20203;-62
2023/04/21 13:32:28;;;;;;;3.30;3.10;;;;;;;;;;5016438;28;20214;-62
2023/04/21 13:34:56;;;;;;;3.10;2.90;;;;;;;;;;5015998;28;20484;-62
2023/04/21 13:37:24;;;;;;;2.97;2.78;;;;;;;;;;5016105;28;20207;-62
2023/04/21 13:39:51;;;;;;;2.95;2.75;;;;;;;;;;5016333;28;20514;-62
2023/04/21 13:42:19;;;;;;;2.95;2.75;;;;;;;;;;5016970;28;20519;-62
2023/04/21 13:44:46;;;;;;;3.15;2.85;;;;;;;;;;5015606;28;20213;-62
2023/04/21 13:47:13;;;;;;;3.00;2.80;;;;;;;;;;5015316;28;20221;-62
2023/04/21 13:49:42;;;;;;;3.10;2.90;;;;;;;;;;5014502;28;20210;-61
2023/04/21 13:52:09;;;;;;;3.10;2.90;;;;;;;;;;5015848;28;20249;-61
2023/04/21 13:54:36;;;;;;;3.05;2.85;;;;;;;;;;5015723;28;20669;-61
2023/04/21 13:57:04;;;;;;;3.13;2.92;;;;;;;;;;5015578;28;20605;-61
2023/04/21 13:59:31;;;;;;;3.30;3.00;;;;;;;;;;5015347;28;20360;-61
2023/04/21 14:01:59;;;;;;;3.00;2.80;;;;;;;;;;5015980;28;20217;-62
2023/04/21 14:04:26;;;;;;;3.40;3.10;;;;;;;;;;5014911;28;20202;-62
2023/04/21 14:06:55;;;;;;;3.33;3.05;;;;;;;;;;5015984;28;20206;-62
2023/04/21 14:09:22;;;;;;;2.97;2.78;;;;;;;;;;5014654;28;20245;-62
2023/04/21 14:11:49;;;;;;;2.78;2.58;;;;;;;;;;5014879;28;20206;-62
2023/04/21 14:14:17;;;;;;;2.80;2.60;;;;;;;;;;5014947;28;20203;-62
2023/04/21 14:16:47;;;;;;;2.90;2.60;;;;;;;;;;5014770;28;20206;-62
2023/04/21 14:19:15;;;;;;;2.97;2.78;;;;;;;;;;5014334;28;20614;-62
2023/04/21 14:21:42;;;;;;;3.05;2.85;;;;;;;;;;5015652;28;20213;-62
2023/04/21 14:24:11;;;;;;;3.10;2.90;;;;;;;;;;5014714;28;20206;-62
2023/04/21 14:26:39;;;;;;;2.97;2.78;;;;;;;;;;5014582;28;20614;-62
2023/04/21 14:29:06;;;;;;;2.88;2.67;;;;;;;;;;5015357;28;20205;-62
2023/04/21 14:31:34;;;;;;;3.05;2.78;;;;;;;;;;5014595;28;20597;-62
2023/04/21 14:34:01;;;;;;;2.92;2.72;;;;;;;;;;5014901;28;20539;-62
2023/04/21 14:36:28;;;;;;;3.00;2.80;;;;;;;;;;5014626;28;20284;-61
2023/04/21 14:38:56;;;;;;;3.17;2.97;;;;;;;;;;5013892;28;20233;-61
2023/04/21 14:41:24;;;;;;;2.70;2.50;;;;;;;;;;5015125;28;20202;-61
2023/04/21 14:43:55;;;;;;;3.17;2.88;;;;;;;;;;5015434;28;20213;-62
2023/04/21 14:46:22;;;;;;;3.15;2.90;;;;;;;;;;5014342;28;20210;-62
2023/04/21 14:48:50;;;;;;;3.22;2.95;;;;;;;;;;5013233;28;20202;-61